Time;durP1;ratioP1;P1;durP2;ratioP2;P2;SDS_P1;SDS_P2;PMS_P1;PMS_P2;Temp;Humidity;BMP_temperature;BMP_pressure;BME280_temperature;BME280_humidity;BME280_pressure;Samples;Min_cycle;Max_cycle;Signal;HPM_P1;HPM_P2
2022/03/12 00:00:08;;;;;;;20.08;12.38;;;;;;;10.06;41.14;101096.28;5013543;28;20034;-69
2022/03/12 00:02:34;;;;;;;20.45;12.38;;;;;;;10.04;41.36;101091.06;5010025;28;20072;-70
2022/03/12 00:05:00;;;;;;;18.13;11.52;;;;;;;10.06;40.77;101104.38;5012851;28;20497;-69
2022/03/12 00:07:27;;;;;;;17.63;11.98;;;;;;;10.01;42.20;101088.81;5013375;28;20041;-70
2022/03/12 00:09:54;;;;;;;20.13;12.18;;;;;;;10.06;40.71;101098.97;5011651;28;20029;-69
2022/03/12 00:12:20;;;;;;;21.08;12.45;;;;;;;10.05;40.63;101097.31;5013065;28;20052;-70
2022/03/12 00:14:47;;;;;;;16.42;11.60;;;;;;;10.08;41.43;101104.97;5013045;28;20030;-70
2022/03/12 00:17:13;;;;;;;19.05;12.35;;;;;;;10.06;41.89;101097.09;5013174;28;20029;-70
2022/03/12 00:19:40;;;;;;;17.02;11.32;;;;;;;10.07;42.21;101100.59;5013098;28;20372;-70
2022/03/12 00:22:07;;;;;;;18.27;12.18;;;;;;;10.07;42.42;101101.47;5013164;28;20084;-70
2022/03/12 00:24:34;;;;;;;21.60;12.05;;;;;;;10.07;42.96;101106.03;5013208;28;20036;-70
2022/03/12 00:27:00;;;;;;;19.00;11.85;;;;;;;10.07;42.32;101106.03;5027653;28;20026;-70
2022/03/12 00:29:25;;;;;;;18.67;12.02;;;;;;;10.07;42.39;101112.28;5011842;28;20025;-70
2022/03/12 00:31:53;;;;;;;17.52;11.88;;;;;;;10.09;42.34;101114.75;5012705;28;20037;-70
2022/03/12 00:34:18;;;;;;;18.77;12.02;;;;;;;10.08;42.22;101113.94;5013031;28;20535;-70
2022/03/12 00:36:44;;;;;;;19.52;12.05;;;;;;;10.12;42.82;101119.75;5027501;28;20034;-70
2022/03/12 00:39:12;;;;;;;23.08;12.00;;;;;;;10.14;42.43;101123.03;5013180;28;20087;-70
2022/03/12 00:41:38;;;;;;;19.70;12.60;;;;;;;10.14;42.60;101123.03;5012857;28;20030;-69
2022/03/12 00:44:04;;;;;;;19.45;12.85;;;;;;;10.12;42.84;101125.16;5012486;28;20026;-68
2022/03/12 00:46:30;;;;;;;20.42;12.88;;;;;;;10.11;43.11;101124.34;5012551;28;20049;-68
2022/03/12 00:48:55;;;;;;;26.45;12.55;;;;;;;10.09;44.05;101133.69;5012361;28;20026;-69
2022/03/12 00:51:20;;;;;;;22.67;12.45;;;;;;;10.08;45.12;101124.75;5012491;28;20030;-69
2022/03/12 00:53:46;;;;;;;16.88;11.68;;;;;;;10.08;44.62;101132.88;5012560;28;20033;-70
2022/03/12 00:56:11;;;;;;;21.35;11.90;;;;;;;10.05;45.01;101125.16;5013014;28;20480;-70
2022/03/12 00:58:37;;;;;;;19.55;12.40;;;;;;;10.02;44.87;101130.19;5012670;28;20029;-70
2022/03/12 01:01:04;;;;;;;19.48;12.15;;;;;;;9.97;45.74;101133.53;5010012;28;20037;-70
2022/03/12 01:03:30;;;;;;;17.45;12.45;;;;;;;10.03;45.58;101129.97;5011460;28;20080;-70
2022/03/12 01:05:55;;;;;;;21.48;12.27;;;;;;;10.03;45.94;101132.66;5012323;28;20026;-70
2022/03/12 01:08:24;;;;;;;18.33;12.13;;;;;;;9.99;45.88;101125.19;5012733;28;20638;-70
2022/03/12 01:10:51;;;;;;;17.25;12.05;;;;;;;10.01;45.83;101133.91;5012392;28;20272;-70
2022/03/12 01:13:17;;;;;;;18.42;11.63;;;;;;;10.01;45.84;101134.78;5027718;28;20026;-69
2022/03/12 01:15:42;;;;;;;20.85;12.25;;;;;;;9.98;46.71;101127.09;5012560;28;20457;-69
2022/03/12 01:18:17;;;;;;;22.42;12.45;;;;;;;10.00;45.61;101138.50;5012334;28;20370;-69
2022/03/12 01:20:42;;;;;;;21.20;12.30;;;;;;;9.96;46.89;101131.03;5012322;28;20033;-69
2022/03/12 01:23:08;;;;;;;21.17;12.25;;;;;;;9.95;47.53;101135.63;5014915;28;20112;-69
2022/03/12 01:25:34;;;;;;;23.02;12.63;;;;;;;9.93;48.23;101135.00;5016321;28;20085;-69
2022/03/12 01:27:59;;;;;;;22.67;12.38;;;;;;;9.93;49.72;101140.41;5015847;28;20357;-69
2022/03/12 01:30:30;;;;;;;21.17;12.55;;;;;;;9.88;49.41;101141.03;5031391;28;20026;-69
2022/03/12 01:32:56;;;;;;;19.03;12.27;;;;;;;9.87;50.80;101142.09;5016030;28;20476;-69
2022/03/12 01:35:22;;;;;;;18.58;12.88;;;;;;;9.87;51.21;101152.06;5030838;28;20026;-69
2022/03/12 01:37:48;;;;;;;21.65;13.52;;;;;;;9.84;51.40;101156.00;5015758;28;20106;-69
2022/03/12 01:40:13;;;;;;;24.30;13.43;;;;;;;9.82;52.04;101162.69;5015807;28;20117;-68
2022/03/12 01:42:39;;;;;;;23.10;13.88;;;;;;;9.78;53.93;101156.88;5016052;28;20211;-68
2022/03/12 01:45:07;;;;;;;21.75;13.10;;;;;;;9.75;52.93;101151.88;5015654;28;20030;-68
2022/03/12 01:47:33;;;;;;;20.27;13.10;;;;;;;9.69;53.85;101155.44;5016017;28;20535;-68
2022/03/12 01:49:58;;;;;;;21.23;12.73;;;;;;;9.67;54.53;101155.66;5015484;28;20030;-69
2022/03/12 01:52:25;;;;;;;23.45;13.90;;;;;;;9.62;56.96;101155.47;5015614;28;20056;-69
2022/03/12 01:54:51;;;;;;;20.70;13.10;;;;;;;9.58;54.96;101156.91;5015623;28;20038;-69
2022/03/12 01:57:16;;;;;;;17.23;12.68;;;;;;;9.53;55.89;101148.63;5014508;28;20121;-69
2022/03/12 01:59:41;;;;;;;20.58;13.02;;;;;;;9.49;55.50;101150.91;5015654;28;20358;-69
2022/03/12 02:02:13;;;;;;;19.02;12.93;;;;;;;9.46;55.73;101154.03;5012061;28;20053;-69
2022/03/12 02:04:39;;;;;;;;;;;;;;;9.56;53.87;101148.22;5015913;28;20042;-69
2022/03/12 02:07:04;;;;;;;19.67;12.85;;;;;;;9.47;55.83;101142.19;5015083;28;20012;-69
2022/03/12 02:09:30;;;;;;;20.15;12.75;;;;;;;9.45;56.05;101149.69;5015575;28;20037;-69
2022/03/12 02:11:55;;;;;;;20.08;13.32;;;;;;;9.48;54.62;101145.72;5030483;28;20072;-69
2022/03/12 02:14:27;;;;;;;21.70;13.02;;;;;;;9.46;55.55;101148.63;5015788;28;20033;-69
2022/03/12 02:16:58;;;;;;;23.10;13.30;;;;;;;9.48;55.70;101148.41;5015239;28;20095;-69
2022/03/12 02:19:26;;;;;;;20.17;13.43;;;;;;;9.47;55.13;101149.47;5015412;28;20032;-69
2022/03/12 02:22:03;;;;;;;19.42;13.15;;;;;;;9.47;54.77;101158.41;5014853;28;20380;-69
2022/03/12 02:24:31;;;;;;;18.40;12.77;;;;;;;9.53;55.29;101154.03;5029755;28;20126;-69
2022/03/12 02:26:59;;;;;;;22.10;13.35;;;;;;;9.54;54.50;101153.81;5014898;28;20113;-69
2022/03/12 02:29:25;;;;;;;19.15;12.98;;;;;;;9.56;55.63;101148.22;5015136;28;20025;-69
2022/03/12 02:32:03;;;;;;;20.05;12.82;;;;;;;9.54;54.93;101150.28;5014928;28;20488;-69
2022/03/12 02:34:35;;;;;;;20.13;12.95;;;;;;;9.54;56.30;101159.22;5015195;28;20026;-69
2022/03/12 02:37:00;;;;;;;19.58;12.60;;;;;;;9.55;55.95;101155.47;5014707;28;20036;-69
2022/03/12 02:39:27;;;;;;;21.33;12.85;;;;;;;9.55;56.94;101162.75;5015319;28;20037;-69
2022/03/12 02:41:54;;;;;;;18.70;12.80;;;;;;;9.52;55.49;101157.75;5014956;28;20029;-69
2022/03/12 02:44:22;;;;;;;17.98;12.02;;;;;;;9.54;55.96;101161.06;5014886;28;20037;-69
2022/03/12 02:47:15;;;;;;;19.50;12.27;;;;;;;9.59;55.28;101172.09;5014684;28;20406;-69
2022/03/12 02:49:50;;;;;;;23.38;12.48;;;;;;;9.58;56.01;101173.13;5014690;28;20092;-69
2022/03/12 02:52:17;;;;;;;15.60;11.57;;;;;;;9.58;56.78;101178.53;5014622;28;20033;-69
2022/03/12 02:54:43;;;;;;;20.75;12.50;;;;;;;9.56;57.26;101177.94;5014824;28;20034;-69
2022/03/12 02:57:09;;;;;;;19.08;12.60;;;;;;;9.54;56.01;101177.28;5029563;28;20025;-69
2022/03/12 02:59:36;;;;;;;18.48;11.68;;;;;;;9.56;56.45;101184.16;5014185;28;20681;-69
2022/03/12 03:02:03;;;;;;;20.30;12.52;;;;;;;9.52;55.48;101173.97;5010740;28;20493;-69
2022/03/12 03:04:34;;;;;;;17.95;11.80;;;;;;;9.47;55.26;101176.50;5014563;28;20076;-69
2022/03/12 03:07:00;;;;;;;20.25;12.90;;;;;;;9.47;56.19;101176.50;5014074;28;20034;-69
2022/03/12 03:09:26;;;;;;;19.17;13.05;;;;;;;9.43;56.12;101180.63;5014491;28;20385;-69
2022/03/12 03:11:53;;;;;;;22.90;12.93;;;;;;;9.44;56.50;101176.91;5014072;28;20025;-69
2022/03/12 03:14:19;;;;;;;19.33;13.18;;;;;;;9.39;55.00;101175.66;5028897;28;20057;-69
2022/03/12 03:16:46;;;;;;;21.48;12.90;;;;;;;9.37;55.81;101187.69;5012556;28;20046;-69
2022/03/12 03:19:11;;;;;;;19.48;12.85;;;;;;;9.33;56.33;101198.09;5014026;28;20117;-69
2022/03/12 03:21:37;;;;;;;19.55;13.23;;;;;;;9.28;57.63;101192.47;5014123;28;20049;-69
2022/03/12 03:24:05;;;;;;;19.50;12.77;;;;;;;9.28;57.27;101189.78;5013647;28;20579;-69
2022/03/12 03:26:54;;;;;;;19.75;12.98;;;;;;;9.30;56.39;101198.53;5014066;28;20465;-69
2022/03/12 03:29:20;;;;;;;16.48;11.80;;;;;;;9.20;57.31;101187.28;5014074;28;20073;-69
2022/03/12 03:31:46;;;;;;;16.45;11.77;;;;;;;9.20;58.51;101181.91;5014019;28;20489;-69
2022/03/12 03:34:13;;;;;;;15.13;10.75;;;;;;;9.16;60.02;101191.44;5013974;28;20045;-69
2022/03/12 03:36:39;;;;;;;16.73;10.95;;;;;;;9.13;60.31;101197.25;5013942;28;20045;-69
2022/03/12 03:39:05;;;;;;;16.83;10.90;;;;;;;9.17;61.27;101206.63;5013257;28;20030;-69
2022/03/12 03:41:32;;;;;;;13.95;10.70;;;;;;;9.15;60.76;101193.31;5013813;28;20388;-69
2022/03/12 03:43:57;;;;;;;15.52;10.60;;;;;;;9.12;61.46;101196.44;5013283;28;20025;-69
2022/03/12 03:46:23;;;;;;;16.08;9.95;;;;;;;9.13;61.32;101202.66;5011605;28;20053;-69
2022/03/12 03:48:51;;;;;;;14.15;10.77;;;;;;;9.11;61.30;101199.34;5014014;28;20600;-69
2022/03/12 03:51:18;;;;;;;15.23;10.73;;;;;;;9.11;61.46;101207.44;5028537;28;20030;-69
2022/03/12 03:53:43;;;;;;;16.35;10.75;;;;;;;9.07;61.79;101214.28;5013627;28;20052;-69
2022/03/12 03:56:08;;;;;;;16.10;10.43;;;;;;;9.10;61.14;101203.06;5013419;28;20502;-68
2022/03/12 03:58:34;;;;;;;15.00;10.43;;;;;;;9.05;62.05;101207.22;5013800;28;20026;-68
2022/03/12 04:01:12;;;;;;;14.85;10.73;;;;;;;9.04;62.98;101215.50;5010049;28;20049;-69
2022/03/12 04:03:40;;;;;;;14.70;10.00;;;;;;;9.03;63.00;101211.19;5013433;28;20517;-69
2022/03/12 04:06:05;;;;;;;12.95;9.77;;;;;;;8.98;62.92;101211.78;5013123;28;20124;-69
2022/03/12 04:08:32;;;;;;;15.40;9.70;;;;;;;8.99;63.16;101224.22;5012753;28;20392;-68
2022/03/12 04:10:58;;;;;;;12.15;9.23;;;;;;;9.01;63.88;101221.31;5012835;28;20026;-69
2022/03/12 04:13:24;;;;;;;12.63;9.10;;;;;;;9.00;63.46;101219.69;5012917;28;20040;-69
2022/03/12 04:15:51;;;;;;;11.32;8.82;;;;;;;8.99;63.94;101218.84;5028284;28;20145;-68
2022/03/12 04:18:18;;;;;;;12.88;9.32;;;;;;;8.98;63.98;101219.91;5012965;28;20029;-69
2022/03/12 04:20:46;;;;;;;14.85;8.48;;;;;;;8.94;64.91;101229.44;5012904;28;20461;-69
2022/03/12 04:23:12;;;;;;;12.30;8.23;;;;;;;8.90;65.18;101224.66;5027692;28;20128;-69
2022/03/12 04:25:38;;;;;;;11.30;8.20;;;;;;;8.91;65.06;101229.84;5012827;28;20117;-69
2022/03/12 04:28:06;;;;;;;10.88;7.93;;;;;;;8.88;66.20;101230.25;5012866;28;20129;-69
2022/03/12 04:30:31;;;;;;;11.77;8.48;;;;;;;8.84;66.59;101232.50;5013068;28;20065;-69
2022/03/12 04:32:57;;;;;;;10.90;7.35;;;;;;;8.87;65.99;101228.56;5012645;28;20065;-68
2022/03/12 04:35:22;;;;;;;10.70;7.88;;;;;;;8.87;66.33;101236.66;5013328;28;20084;-69
2022/03/12 04:37:48;;;;;;;9.90;7.22;;;;;;;8.82;67.21;101228.38;5011546;28;20080;-69
2022/03/12 04:40:22;;;;;;;10.35;7.55;;;;;;;8.79;66.85;101224.19;5012461;28;20046;-69
2022/03/12 04:42:47;;;;;;;8.35;6.78;;;;;;;8.77;66.81;101236.22;5012666;28;20481;-69
2022/03/12 04:45:18;;;;;;;10.73;7.45;;;;;;;8.70;67.45;101233.53;5012469;28;20064;-69
2022/03/12 04:47:45;;;;;;;12.55;7.30;;;;;;;8.72;67.17;101230.63;5012682;28;20053;-69
2022/03/12 04:50:14;;;;;;;10.80;7.22;;;;;;;8.71;66.72;101231.66;5012634;28;20430;-69
2022/03/12 04:52:42;;;;;;;8.27;7.00;;;;;;;8.73;67.28;101233.13;5012730;28;20030;-69
2022/03/12 04:55:10;;;;;;;9.70;7.20;;;;;;;8.71;67.97;101243.28;5012290;28;20037;-69
2022/03/12 04:57:36;;;;;;;9.65;7.32;;;;;;;8.69;67.89;101256.94;5014905;28;20108;-69
2022/03/12 05:00:07;;;;;;;10.02;7.32;;;;;;;8.65;67.79;101242.22;5016649;28;20519;-69
2022/03/12 05:02:33;;;;;;;10.23;6.82;;;;;;;8.63;68.83;101243.44;5013434;28;20046;-70
2022/03/12 05:04:58;;;;;;;9.65;7.15;;;;;;;8.66;68.45;101248.44;5016737;28;20393;-70
2022/03/12 05:07:24;;;;;;;10.38;6.75;;;;;;;8.60;69.63;101251.94;5016435;28;20034;-70
2022/03/12 05:09:50;;;;;;;8.73;7.10;;;;;;;8.63;69.21;101246.16;5015196;28;20388;-70
2022/03/12 05:12:17;;;;;;;8.90;6.63;;;;;;;8.60;70.46;101246.56;5016475;28;20045;-70
2022/03/12 05:14:51;;;;;;;9.98;6.93;;;;;;;8.58;69.65;101243.25;5016621;28;20396;-70
2022/03/12 05:17:17;;;;;;;8.95;6.93;;;;;;;8.58;69.85;101254.84;5016351;28;20058;-70
2022/03/12 05:19:42;;;;;;;8.25;6.70;;;;;;;8.59;70.54;101259.22;5016504;28;20072;-69
2022/03/12 05:22:07;;;;;;;9.88;6.35;;;;;;;8.57;70.11;101263.97;5031265;28;20026;-69
2022/03/12 05:24:33;;;;;;;9.85;6.57;;;;;;;8.55;70.70;101263.34;5016175;28;20037;-70
2022/03/12 05:26:59;;;;;;;7.53;6.10;;;;;;;8.52;70.70;101271.84;5016318;28;20030;-70
2022/03/12 05:29:26;;;;;;;7.90;6.03;;;;;;;8.51;70.90;101270.16;5015854;28;20119;-70
2022/03/12 05:31:52;;;;;;;7.93;6.55;;;;;;;8.49;72.10;101274.94;5016259;28;20036;-69
2022/03/12 05:34:21;;;;;;;9.13;6.95;;;;;;;8.47;71.01;101271.59;5016371;28;20032;-69
2022/03/12 05:36:47;;;;;;;9.20;6.82;;;;;;;8.48;71.19;101278.66;5016293;28;20030;-70
2022/03/12 05:39:12;;;;;;;18.65;12.48;;;;;;;8.49;70.70;101277.66;5015605;28;20030;-69
2022/03/12 05:41:41;;;;;;;13.85;9.70;;;;;;;8.46;70.62;101278.88;5016154;28;20061;-69
2022/03/12 05:44:07;;;;;;;10.07;7.30;;;;;;;8.43;71.10;101284.63;5015866;28;20030;-70
2022/03/12 05:46:32;;;;;;;11.43;9.00;;;;;;;8.42;71.42;101292.94;5015491;28;20049;-69
2022/03/12 05:48:58;;;;;;;10.23;7.65;;;;;;;8.41;71.75;101285.84;5015972;28;20471;-69
2022/03/12 05:51:23;;;;;;;13.10;9.15;;;;;;;8.36;71.40;101288.34;5015579;28;20121;-69
2022/03/12 05:53:49;;;;;;;11.95;8.00;;;;;;;8.38;71.43;101289.81;5015672;28;20113;-70
2022/03/12 05:56:14;;;;;;;9.85;7.75;;;;;;;8.33;72.28;101293.09;5015543;28;20040;-69
2022/03/12 05:58:40;;;;;;;10.18;7.60;;;;;;;8.34;71.79;101297.44;5015459;28;20041;-69
2022/03/12 06:01:07;;;;;;;10.10;7.85;;;;;;;8.30;72.21;101290.81;5012231;28;20056;-69
2022/03/12 06:03:33;;;;;;;11.55;7.80;;;;;;;8.31;72.67;101297.03;5015676;28;20157;-69
2022/03/12 06:05:59;;;;;;;10.05;7.38;;;;;;;8.31;72.82;101300.53;5015500;28;20112;-68
2022/03/12 06:08:26;;;;;;;11.10;7.50;;;;;;;8.24;72.68;101296.13;5013459;28;20091;-69
2022/03/12 06:10:55;;;;;;;8.85;7.05;;;;;;;8.26;73.93;101294.91;5015584;28;20025;-69
2022/03/12 06:13:23;;;;;;;10.27;7.20;;;;;;;8.21;73.44;101297.38;5015314;28;20531;-69
2022/03/12 06:15:52;;;;;;;9.48;6.15;;;;;;;8.23;73.41;101300.72;5015340;28;20029;-69
2022/03/12 06:18:17;;;;;;;9.52;7.28;;;;;;;8.24;73.41;101296.97;5015191;28;20029;-69
2022/03/12 06:20:43;;;;;;;9.75;6.93;;;;;;;8.23;73.84;101306.09;5015386;28;20458;-69
2022/03/12 06:23:08;;;;;;;11.10;7.43;;;;;;;8.27;73.39;101310.06;5015087;28;20041;-70
2022/03/12 06:25:34;;;;;;;10.32;7.45;;;;;;;8.23;73.65;101313.34;5015128;28;20033;-69
2022/03/12 06:28:00;;;;;;;10.95;7.78;;;;;;;8.23;74.18;101310.63;5014015;28;20065;-69
2022/03/12 06:30:28;;;;;;;9.23;7.30;;;;;;;8.26;73.78;101313.78;5013563;28;20029;-70
2022/03/12 06:32:55;;;;;;;11.43;7.60;;;;;;;8.24;73.46;101313.13;5015129;28;20112;-70
2022/03/12 06:35:21;;;;;;;11.70;7.95;;;;;;;8.25;73.30;101320.22;5014892;28;20034;-69
2022/03/12 06:37:46;;;;;;;9.77;7.70;;;;;;;8.23;74.05;101311.50;5015365;28;20084;-69
2022/03/12 06:40:14;;;;;;;9.90;7.10;;;;;;;8.28;74.10;101321.69;5029404;28;20038;-69
2022/03/12 06:42:45;;;;;;;9.75;7.43;;;;;;;8.24;74.92;101320.41;5014894;28;20457;-68
2022/03/12 06:45:15;;;;;;;9.88;7.40;;;;;;;8.24;74.44;101323.09;5014310;28;20034;-69
2022/03/12 06:47:40;;;;;;;10.40;7.25;;;;;;;8.26;74.83;101327.28;5015007;28;20093;-68
2022/03/12 06:50:08;;;;;;;11.25;7.07;;;;;;;8.29;74.93;101328.75;5014646;28;20084;-68
2022/03/12 06:52:34;;;;;;;9.48;7.35;;;;;;;8.30;74.92;101333.09;5029880;28;20389;-68
2022/03/12 06:55:00;;;;;;;8.93;6.95;;;;;;;8.31;75.15;101335.59;5014402;28;20038;-69
2022/03/12 06:57:25;;;;;;;9.80;7.03;;;;;;;8.33;75.03;101333.56;5014411;28;20044;-69
2022/03/12 06:59:51;;;;;;;8.25;7.00;;;;;;;8.37;75.26;101333.97;5014419;28;20038;-69
2022/03/12 07:02:16;;;;;;;9.00;6.70;;;;;;;8.39;74.82;101334.59;5010953;28;20503;-69
2022/03/12 07:04:41;;;;;;;8.35;7.13;;;;;;;8.45;75.34;101338.41;5014599;28;20097;-69
2022/03/12 07:07:07;;;;;;;11.93;7.60;;;;;;;8.44;75.36;101345.66;5014261;28;20034;-69
2022/03/12 07:09:34;;;;;;;8.70;7.20;;;;;;;8.48;74.91;101341.56;5013935;28;20049;-69
2022/03/12 07:12:00;;;;;;;9.43;7.07;;;;;;;8.52;75.72;101336.59;5029544;28;20092;-69
2022/03/12 07:14:26;;;;;;;8.60;6.50;;;;;;;8.56;74.95;101343.25;5014141;28;20412;-69
2022/03/12 07:16:52;;;;;;;9.88;7.22;;;;;;;8.58;75.53;101348.44;5014635;28;20117;-69
2022/03/12 07:19:17;;;;;;;9.68;7.30;;;;;;;8.58;75.48;101351.97;5012951;28;20030;-69
2022/03/12 07:21:43;;;;;;;9.43;6.95;;;;;;;8.66;75.33;101359.06;5014213;28;20092;-69
2022/03/12 07:24:08;;;;;;;12.05;6.95;;;;;;;8.69;75.08;101354.09;5013709;28;20116;-69
2022/03/12 07:26:33;;;;;;;9.88;7.10;;;;;;;8.72;75.58;101352.84;5013589;28;20030;-69
2022/03/12 07:28:59;;;;;;;10.48;7.50;;;;;;;8.74;74.86;101358.91;5014002;28;20465;-69
2022/03/12 07:31:25;;;;;;;10.38;6.68;;;;;;;8.77;75.37;101366.59;5013819;28;20036;-69
2022/03/12 07:33:50;;;;;;;9.57;7.90;;;;;;;8.77;74.80;101365.75;5013723;28;20065;-69
2022/03/12 07:36:16;;;;;;;9.70;7.30;;;;;;;8.83;74.75;101364.94;5013556;28;20157;-69
2022/03/12 07:38:41;;;;;;;9.27;6.97;;;;;;;8.87;75.50;101382.41;5013706;28;20080;-69
2022/03/12 07:41:07;;;;;;;10.25;7.57;;;;;;;8.87;74.62;101379.72;5013791;28;20032;-69
2022/03/12 07:43:32;;;;;;;10.68;7.20;;;;;;;8.94;75.51;101385.97;5012225;28;20113;-69
2022/03/12 07:45:57;;;;;;;10.60;7.75;;;;;;;8.95;74.89;101387.66;5013542;28;20132;-69
2022/03/12 07:48:23;;;;;;;11.30;7.32;;;;;;;8.99;75.17;101391.59;5013514;28;20061;-71
2022/03/12 07:50:49;;;;;;;10.43;7.30;;;;;;;9.03;75.00;101394.75;5014005;28;20032;-70
2022/03/12 07:53:15;;;;;;;8.82;6.93;;;;;;;9.07;75.96;101390.59;5011476;28;20065;-72
2022/03/12 07:55:40;;;;;;;9.52;7.47;;;;;;;9.07;75.06;101392.47;5013574;28;20092;-71
2022/03/12 07:58:07;;;;;;;9.73;7.30;;;;;;;9.09;75.36;101393.09;5013581;28;20041;-71
2022/03/12 08:00:32;;;;;;;9.05;7.43;;;;;;;9.14;75.28;101401.44;5010812;28;20492;-71
2022/03/12 08:02:58;;;;;;;10.27;7.30;;;;;;;9.16;75.04;101410.16;5012299;28;20078;-71
2022/03/12 08:05:25;;;;;;;11.07;7.50;;;;;;;9.20;75.67;101404.13;5012627;28;20038;-71
2022/03/12 08:07:54;;;;;;;9.70;7.40;;;;;;;9.20;75.06;101401.44;5012864;28;20038;-71
2022/03/12 08:10:22;;;;;;;9.25;7.60;;;;;;;9.27;75.16;101412.28;5012908;28;20042;-71
2022/03/12 08:12:48;;;;;;;10.52;7.40;;;;;;;9.28;74.56;101416.63;5013027;28;20539;-71
2022/03/12 08:15:15;;;;;;;11.27;7.35;;;;;;;9.32;74.76;101417.06;5012720;28;20082;-71
2022/03/12 08:17:41;;;;;;;10.68;7.55;;;;;;;9.32;74.82;101415.19;5013212;28;20040;-71
2022/03/12 08:20:07;;;;;;;9.82;7.30;;;;;;;9.40;74.61;101422.28;5013064;28;20064;-71
2022/03/12 08:22:34;;;;;;;9.63;7.32;;;;;;;9.45;74.67;101416.28;5012688;28;20026;-71
2022/03/12 08:24:59;;;;;;;10.43;7.75;;;;;;;9.51;75.49;101423.56;5013025;28;20449;-71
2022/03/12 08:27:25;;;;;;;9.57;7.18;;;;;;;9.55;74.11;101430.22;5012542;28;20030;-71
2022/03/12 08:29:50;;;;;;;9.20;7.03;;;;;;;9.56;74.97;101440.00;5013076;28;20068;-71
2022/03/12 08:32:15;;;;;;;8.70;7.00;;;;;;;9.61;74.36;101439.41;5012371;28;20133;-71
2022/03/12 08:34:41;;;;;;;9.10;7.32;;;;;;;9.66;75.14;101447.72;5012964;28;20073;-71
2022/03/12 08:37:06;;;;;;;10.32;6.80;;;;;;;9.72;74.51;101438.78;5027814;28;20040;-71
2022/03/12 08:39:32;;;;;;;10.23;7.05;;;;;;;9.79;74.54;101446.91;5012695;28;20053;-71
2022/03/12 08:41:58;;;;;;;10.43;7.20;;;;;;;9.86;74.13;101450.47;5012881;28;20101;-71
2022/03/12 08:44:23;;;;;;;10.80;7.25;;;;;;;9.89;74.14;101445.47;5012588;28;20116;-71
2022/03/12 08:46:48;;;;;;;10.52;6.88;;;;;;;9.96;74.04;101445.47;5012327;28;20061;-70
2022/03/12 08:49:16;;;;;;;10.18;6.53;;;;;;;10.03;74.58;101446.31;5012579;28;20037;-69
2022/03/12 08:51:42;;;;;;;8.48;6.82;;;;;;;10.10;73.70;101447.16;5012772;28;20113;-71
2022/03/12 08:54:07;;;;;;;8.95;6.80;;;;;;;10.17;72.78;101449.84;5012236;28;20119;-70
2022/03/12 08:56:33;;;;;;;10.05;6.65;;;;;;;10.24;73.21;101452.56;5012232;28;20125;-72
2022/03/12 08:58:59;;;;;;;9.65;5.35;;;;;;;10.28;72.14;101457.38;5012475;28;20627;-71
2022/03/12 09:01:25;;;;;;;8.70;4.93;;;;;;;10.29;70.55;101456.31;5008543;28;20133;-73
2022/03/12 09:03:51;;;;;;;8.85;4.78;;;;;;;10.34;70.58;101465.72;5014855;28;20476;-72
2022/03/12 09:06:17;;;;;;;8.05;4.88;;;;;;;10.37;70.82;101455.31;5029159;28;20021;-72
2022/03/12 09:08:44;;;;;;;9.32;4.78;;;;;;;10.46;71.38;101462.19;5019523;28;20045;-73
2022/03/12 09:11:10;;;;;;;9.32;4.90;;;;;;;10.53;69.46;101456.75;5012348;28;20112;-73
2022/03/12 09:13:35;;;;;;;12.00;4.75;;;;;;;10.62;70.61;101468.19;5009740;28;20113;-73
2022/03/12 09:16:00;;;;;;;8.48;4.55;;;;;;;10.63;69.70;101461.75;5012796;28;20061;-71
2022/03/12 09:18:26;;;;;;;6.88;4.18;;;;;;;10.68;69.15;101463.81;5011063;28;20041;-71
2022/03/12 09:20:52;;;;;;;7.93;4.88;;;;;;;10.72;68.81;101471.31;5012526;28;20030;-78
2022/03/12 09:23:20;;;;;;;11.73;4.68;;;;;;;10.78;69.09;101465.03;5012209;28;20477;-75
2022/03/12 09:25:47;;;;;;;9.82;5.00;;;;;;;10.81;68.25;101470.03;5012406;28;20026;-73
2022/03/12 09:28:13;;;;;;;6.03;4.10;;;;;;;10.86;67.67;101468.59;5012111;28;20449;-75
2022/03/12 09:30:39;;;;;;;8.75;4.38;;;;;;;10.87;67.22;101459.41;5027450;28;20061;-75
2022/03/12 09:33:06;;;;;;;12.00;4.25;;;;;;;10.90;67.13;101465.22;5027559;28;20030;-77
2022/03/12 09:35:32;;;;;;;9.57;4.30;;;;;;;10.96;66.67;101466.25;4994318;28;20132;-79
2022/03/12 09:37:59;;;;;;;7.75;3.92;;;;;;;11.06;65.92;101477.47;5011097;28;20033;-72
2022/03/12 09:40:26;;;;;;;10.80;3.97;;;;;;;11.11;66.76;101474.97;5012128;28;20088;-74
2022/03/12 09:42:52;;;;;;;8.93;3.75;;;;;;;11.15;64.48;101464.53;5011138;28;20435;-75
2022/03/12 09:45:21;;;;;;;9.68;3.35;;;;;;;11.23;63.98;101469.72;5013620;28;20091;-74
2022/03/12 09:47:46;;;;;;;9.55;3.60;;;;;;;11.29;63.86;101470.72;5033912;28;20432;-75
2022/03/12 09:50:11;;;;;;;9.10;3.13;;;;;;;11.31;62.08;101469.47;5017884;28;20037;-75
2022/03/12 09:52:37;;;;;;;9.52;2.92;;;;;;;11.33;63.42;101474.66;5034247;28;20037;-76
2022/03/12 09:55:04;;;;;;;5.50;2.95;;;;;;;11.30;62.59;101473.22;5017959;28;20048;-73
2022/03/12 09:57:29;;;;;;;9.68;3.20;;;;;;;11.29;62.48;101482.41;5017986;28;20397;-74
2022/03/12 09:59:56;;;;;;;10.73;3.55;;;;;;;11.27;63.37;101479.06;5016353;28;20030;-74
2022/03/12 10:02:21;;;;;;;11.88;3.28;;;;;;;11.28;62.77;101488.03;5022717;28;20139;-72
2022/03/12 10:04:47;;;;;;;10.00;3.35;;;;;;;11.33;62.82;101477.38;5021342;28;20034;-71
2022/03/12 10:07:12;;;;;;;7.97;3.30;;;;;;;11.35;61.92;101484.25;5020338;28;20107;-72
2022/03/12 10:09:38;;;;;;;6.25;3.13;;;;;;;11.37;62.04;101477.78;5021716;28;20474;-72
2022/03/12 10:12:04;;;;;;;9.88;3.17;;;;;;;11.44;62.58;101484.00;5022665;28;20030;-72
2022/03/12 10:14:30;;;;;;;8.75;3.28;;;;;;;11.49;62.37;101493.16;5015132;28;20192;-73
2022/03/12 10:16:56;;;;;;;8.98;2.97;;;;;;;11.52;61.45;101492.72;5015454;28;20420;-72
2022/03/12 10:19:22;;;;;;;7.57;3.00;;;;;;;11.48;61.27;101486.06;5015063;28;20038;-73
2022/03/12 10:21:47;;;;;;;9.20;3.03;;;;;;;11.49;61.10;101501.28;5006212;28;20030;-72
2022/03/12 10:24:13;;;;;;;8.13;2.97;;;;;;;11.48;60.68;101491.50;5015349;28;20451;-72
2022/03/12 10:26:40;;;;;;;7.50;2.90;;;;;;;11.46;60.93;101493.59;5014716;28;20112;-73
2022/03/12 10:29:06;;;;;;;8.43;3.00;;;;;;;11.49;60.91;101498.56;5014825;28;20061;-73
2022/03/12 10:31:32;;;;;;;11.35;3.00;;;;;;;11.47;60.69;101487.13;5046584;28;20065;-72
2022/03/12 10:34:12;;;;;;;11.30;2.85;;;;;;;11.53;61.14;101488.97;5046940;28;20524;-73
2022/03/12 10:36:39;;;;;;;9.82;3.03;;;;;;;11.60;61.62;101483.50;5014930;28;20116;-74
2022/03/12 10:39:05;;;;;;;5.85;2.40;;;;;;;11.66;59.90;101476.41;5014795;28;20030;-73
2022/03/12 10:41:30;;;;;;;6.25;2.53;;;;;;;11.69;59.91;101487.63;5046416;28;20040;-73
2022/03/12 10:43:56;;;;;;;10.82;2.88;;;;;;;11.80;59.67;101491.53;5014707;28;20033;-72
2022/03/12 10:46:25;;;;;;;8.65;3.08;;;;;;;11.88;59.06;101499.44;5014339;28;20054;-73
2022/03/12 10:48:58;;;;;;;8.57;3.03;;;;;;;11.92;59.68;101496.28;5014794;28;20460;-72
2022/03/12 10:51:29;;;;;;;8.48;2.90;;;;;;;12.01;59.42;101486.84;5014173;28;20108;-74
2022/03/12 10:54:07;;;;;;;10.55;2.90;;;;;;;12.10;59.61;101484.72;5013999;28;20033;-72
2022/03/12 10:56:50;;;;;;;7.53;2.78;;;;;;;12.17;58.58;101483.63;5013851;28;20480;-75
2022/03/12 10:59:24;;;;;;;5.25;2.58;;;;;;;12.28;58.89;101483.97;5014053;28;20395;-75
2022/03/12 11:01:54;;;;;;;8.02;2.70;;;;;;;12.38;58.14;101482.41;5001223;28;20050;-72
2022/03/12 11:04:30;;;;;;;9.40;2.83;;;;;;;12.47;58.78;101476.69;5013965;28;20384;-75
2022/03/12 11:06:57;;;;;;;7.53;2.63;;;;;;;12.51;57.70;101473.31;5029444;28;20057;-72
2022/03/12 11:09:36;;;;;;;8.50;2.50;;;;;;;12.62;58.45;101479.06;5014180;28;20106;-74
2022/03/12 11:12:05;;;;;;;7.22;2.72;;;;;;;12.68;56.52;101487.16;5014230;28;20114;-73
2022/03/12 11:14:31;;;;;;;7.53;2.40;;;;;;;12.75;56.48;101484.38;5014016;28;20420;-74
2022/03/12 11:16:58;;;;;;;8.82;2.22;;;;;;;12.82;56.20;101485.13;5013933;28;20046;-72
2022/03/12 11:19:41;;;;;;;8.70;2.90;;;;;;;12.90;55.83;101489.44;5013993;28;20042;-72